Time;durP1;ratioP1;P1;durP2;ratioP2;P2;SDS_P1;SDS_P2;PMS_P1;PMS_P2;Temp;Humidity;BMP_temperature;BMP_pressure;BME280_temperature;BME280_humidity;BME280_pressure;Samples;Min_cycle;Max_cycle;Signal;HPM_P1;HPM_P2
2021/03/15 05:45:19;;;;;;;3.75;1.40;;;;;;;;;;6187178;22;928097;-79
2021/03/15 05:48:04;;;;;;;3.83;1.63;;;;;;;;;;6256986;22;20012;-80
2021/03/15 05:50:55;;;;;;;3.75;1.20;;;;;;;;;;6286765;22;20618;-79
2021/03/15 05:53:47;;;;;;;3.60;1.23;;;;;;;;;;6285697;22;20000;-79
2021/03/15 05:56:18;;;;;;;3.83;1.23;;;;;;;;;;6272951;22;20000;-80
2021/03/15 05:59:00;;;;;;;2.28;1.20;;;;;;;;;;6256033;23;20007;-80
2021/03/15 06:01:44;;;;;;;2.40;1.20;;;;;;;;;;6262760;23;20026;-79
2021/03/15 06:04:22;;;;;;;3.40;1.40;;;;;;;;;;6262040;23;20004;-79
2021/03/15 06:06:51;;;;;;;2.05;1.05;;;;;;;;;;6264226;22;20011;-80
2021/03/15 06:09:19;;;;;;;6.50;1.80;;;;;;;;;;6264271;23;20011;-79
2021/03/15 06:11:46;;;;;;;3.42;1.50;;;;;;;;;;6264389;23;20031;-80
2021/03/15 06:14:13;;;;;;;2.78;1.33;;;;;;;;;;6263671;23;20007;-80
2021/03/15 06:16:39;;;;;;;4.72;1.23;;;;;;;;;;6239569;23;20031;-78
2021/03/15 06:19:05;;;;;;;2.15;0.90;;;;;;;;;;6241703;23;19996;-79
2021/03/15 06:21:31;;;;;;;3.13;1.10;;;;;;;;;;6265182;23;20355;-79
2021/03/15 06:24:00;;;;;;;2.22;1.10;;;;;;;;;;6261748;23;20000;-80
2021/03/15 06:26:29;;;;;;;3.00;1.50;;;;;;;;;;6237084;23;20008;-80
2021/03/15 06:28:58;;;;;;;2.53;1.20;;;;;;;;;;6265310;23;20419;-80
2021/03/15 06:31:24;;;;;;;3.55;1.85;;;;;;;;;;6237069;23;20019;-80
2021/03/15 06:33:50;;;;;;;4.32;2.13;;;;;;;;;;6236850;23;20054;-79
2021/03/15 06:36:16;;;;;;;4.00;1.67;;;;;;;;;;6263150;22;20354;-80
2021/03/15 06:38:43;;;;;;;2.60;1.30;;;;;;;;;;6240978;23;20030;-80
2021/03/15 06:41:09;;;;;;;4.45;1.90;;;;;;;;;;6267382;23;19999;-80
2021/03/15 06:43:34;;;;;;;3.20;2.08;;;;;;;;;;6259799;23;20004;-80
2021/03/15 06:46:00;;;;;;;2.60;1.27;;;;;;;;;;6258429;22;20008;-81
2021/03/15 06:48:26;;;;;;;4.20;1.63;;;;;;;;;;6256885;23;20003;-78
2021/03/15 06:50:53;;;;;;;2.40;1.30;;;;;;;;;;6255220;23;20496;-79
2021/03/15 06:53:19;;;;;;;3.42;1.38;;;;;;;;;;6256106;23;20007;-81
2021/03/15 06:55:47;;;;;;;2.45;1.00;;;;;;;;;;6258178;22;20084;-79
2021/03/15 06:58:25;;;;;;;2.63;1.40;;;;;;;;;;6258888;23;20079;-79
2021/03/15 07:01:10;;;;;;;2.70;1.40;;;;;;;;;;6232195;23;20008;-80
2021/03/15 07:03:36;;;;;;;3.30;1.30;;;;;;;;;;6258385;23;20057;-78
2021/03/15 07:06:03;;;;;;;2.92;1.10;;;;;;;;;;6259817;22;20004;-79
2021/03/15 07:08:28;;;;;;;2.00;0.95;;;;;;;;;;6258810;23;20074;-79
2021/03/15 07:10:58;;;;;;;1.83;0.80;;;;;;;;;;6232326;23;20059;-80
2021/03/15 07:13:24;;;;;;;2.33;1.23;;;;;;;;;;6257515;23;20040;-80
2021/03/15 07:15:51;;;;;;;3.20;1.23;;;;;;;;;;6232108;23;20005;-80
2021/03/15 07:18:27;;;;;;;2.47;1.10;;;;;;;;;;6259657;23;20062;-80
2021/03/15 07:20:53;;;;;;;2.22;1.00;;;;;;;;;;6257258;23;20007;-79
2021/03/15 07:23:38;;;;;;;1.90;0.95;;;;;;;;;;6258911;23;20000;-80
2021/03/15 07:26:10;;;;;;;3.53;1.10;;;;;;;;;;6258645;22;20063;-80
2021/03/15 07:28:36;;;;;;;2.25;1.27;;;;;;;;;;6259135;23;20005;-79
2021/03/15 07:31:20;;;;;;;2.63;1.25;;;;;;;;;;6230862;23;20014;-80
2021/03/15 07:33:55;;;;;;;2.20;1.02;;;;;;;;;;6231989;23;20011;-79
2021/03/15 07:36:22;;;;;;;3.97;2.17;;;;;;;;;;6231910;23;20004;-80
2021/03/15 07:38:48;;;;;;;5.13;1.80;;;;;;;;;;6256629;23;20000;-79
2021/03/15 07:41:14;;;;;;;4.93;1.85;;;;;;;;;;6257454;23;20027;-79
2021/03/15 07:43:39;;;;;;;4.68;1.98;;;;;;;;;;6257651;23;20063;-79
2021/03/15 07:46:16;;;;;;;2.90;1.67;;;;;;;;;;6232241;23;20019;-79
2021/03/15 07:48:41;;;;;;;3.97;1.50;;;;;;;;;;6259193;23;20513;-80
2021/03/15 07:51:09;;;;;;;3.33;1.42;;;;;;;;;;6258439;23;20023;-80
2021/03/15 07:53:46;;;;;;;2.42;1.40;;;;;;;;;;6228753;23;20004;-80
2021/03/15 07:56:21;;;;;;;3.42;1.88;;;;;;;;;;6259320;22;20000;-80
2021/03/15 07:58:47;;;;;;;2.80;1.40;;;;;;;;;;6232911;23;20000;-80
2021/03/15 08:01:14;;;;;;;3.63;1.58;;;;;;;;;;6259767;23;20026;-79
2021/03/15 08:03:40;;;;;;;3.00;1.67;;;;;;;;;;6259208;23;20004;-80
2021/03/15 08:06:10;;;;;;;4.28;2.22;;;;;;;;;;6259961;22;20008;-79
2021/03/15 08:08:36;;;;;;;3.40;2.00;;;;;;;;;;6260924;23;20006;-79
2021/03/15 08:11:03;;;;;;;3.40;1.90;;;;;;;;;;6255295;23;20410;-79
2021/03/15 08:13:30;;;;;;;3.83;2.13;;;;;;;;;;6232355;23;20000;-79
2021/03/15 08:16:02;;;;;;;14.27;9.93;;;;;;;;;;6259414;22;20000;-79
2021/03/15 08:18:44;;;;;;;8.52;6.10;;;;;;;;;;6252808;23;19996;-78
2021/03/15 08:21:40;;;;;;;5.57;3.38;;;;;;;;;;6252283;23;20015;-79
2021/03/15 08:25:14;;;;;;;9.75;5.68;;;;;;;;;;6249985;23;20023;-79
2021/03/15 08:28:10;;;;;;;28.85;15.30;;;;;;;;;;6152715;23;20572;-78
2021/03/15 08:31:18;;;;;;;42.65;23.63;;;;;;;;;;6192050;23;20016;-79
2021/03/15 08:34:29;;;;;;;27.38;16.48;;;;;;;;;;6239495;23;20018;-79
2021/03/15 08:37:30;;;;;;;14.68;9.23;;;;;;;;;;6250518;22;20008;-79
2021/03/15 08:40:36;;;;;;;4.90;3.22;;;;;;;;;;6245074;23;20008;-78
2021/03/15 08:50:14;;;;;;;5.57;2.80;;;;;;;;;;6132801;23;20044;-80
2021/03/15 08:53:24;;;;;;;8.25;3.50;;;;;;;;;;6108413;23;20044;-80
2021/03/15 08:56:34;;;;;;;6.15;3.28;;;;;;;;;;6051917;23;20022;-80
2021/03/15 08:59:47;;;;;;;5.55;3.53;;;;;;;;;;5989031;23;20019;-79
2021/03/15 09:02:58;;;;;;;4.75;2.78;;;;;;;;;;5916231;24;20022;-80
2021/03/15 09:05:44;;;;;;;7.97;3.58;;;;;;;;;;5987365;23;20035;-79
2021/03/15 09:33:31;;;;;;;7.30;3.17;;;;;;;;;;5108072;28;20199;-77
2021/03/15 09:36:12;;;;;;;6.68;3.78;;;;;;;;;;5115120;28;20043;-78
2021/03/15 09:47:07;;;;;;;5.50;3.20;;;;;;;;;;5124580;27;20374;-78
2021/03/15 09:49:43;;;;;;;3.45;2.25;;;;;;;;;;5116841;28;20475;-78
2021/03/15 09:53:10;;;;;;;3.95;2.05;;;;;;;;;;5126587;28;20389;-78
2021/03/15 09:55:47;;;;;;;4.07;2.25;;;;;;;;;;5042893;28;20024;-77
2021/03/15 09:58:42;;;;;;;6.05;2.80;;;;;;;;;;5118895;28;20070;-78
2021/03/15 10:06:54;;;;;;;3.17;1.63;;;;;;;;;;5119187;27;20402;-78
2021/03/15 10:09:20;;;;;;;2.92;1.65;;;;;;;;;;5121705;27;20071;-77
2021/03/15 10:11:46;;;;;;;4.18;2.25;;;;;;;;;;5123681;28;20020;-78
2021/03/15 10:14:13;;;;;;;3.60;1.63;;;;;;;;;;5110989;27;20057;-78
2021/03/15 10:16:51;;;;;;;3.45;1.42;;;;;;;;;;5114482;27;20426;-78
2021/03/15 10:19:27;;;;;;;3.20;1.65;;;;;;;;;;5115629;28;20023;-78
2021/03/15 10:21:54;;;;;;;4.63;1.90;;;;;;;;;;5124568;28;20020;-78
2021/03/15 10:24:33;;;;;;;5.65;2.20;;;;;;;;;;5113181;27;20025;-79
2021/03/15 10:26:59;;;;;;;2.85;1.23;;;;;;;;;;5118045;28;20028;-79
2021/03/15 10:29:25;;;;;;;5.35;1.58;;;;;;;;;;5125137;28;20027;-78
2021/03/15 10:31:51;;;;;;;5.65;3.67;;;;;;;;;;5123191;28;20022;-78
2021/03/15 10:34:17;;;;;;;2.70;1.20;;;;;;;;;;5123929;28;20027;-78
2021/03/15 10:36:43;;;;;;;2.95;1.38;;;;;;;;;;5123730;28;20032;-79
2021/03/15 10:39:09;;;;;;;6.35;3.13;;;;;;;;;;5119147;28;20529;-78
2021/03/15 10:41:39;;;;;;;4.45;1.80;;;;;;;;;;5105515;28;20016;-77
2021/03/15 10:44:05;;;;;;;5.45;2.42;;;;;;;;;;5127546;27;20030;-79
2021/03/15 10:46:44;;;;;;;4.68;2.72;;;;;;;;;;5116247;27;20016;-78
2021/03/15 10:49:18;;;;;;;6.38;3.92;;;;;;;;;;5111624;28;20017;-78
2021/03/15 10:51:45;;;;;;;13.25;7.22;;;;;;;;;;5115796;28;20035;-79
2021/03/15 10:54:11;;;;;;;8.93;6.60;;;;;;;;;;5118950;27;20016;-78
2021/03/15 10:56:37;;;;;;;19.58;10.25;;;;;;;;;;5121677;27;20052;-78
2021/03/15 10:59:03;;;;;;;4.43;2.45;;;;;;;;;;5113861;28;20023;-78
2021/03/15 11:01:29;;;;;;;2.80;1.50;;;;;;;;;;5111859;28;20027;-77
2021/03/15 11:04:09;;;;;;;4.20;1.55;;;;;;;;;;5106281;28;20032;-78
2021/03/15 11:06:34;;;;;;;2.80;1.63;;;;;;;;;;5111768;28;20024;-79
2021/03/15 11:09:00;;;;;;;3.05;1.20;;;;;;;;;;5124442;28;20044;-78
2021/03/15 11:11:27;;;;;;;3.20;1.05;;;;;;;;;;5111668;27;20016;-78
2021/03/15 11:13:53;;;;;;;2.42;1.15;;;;;;;;;;5115476;28;20024;-79
2021/03/15 11:16:20;;;;;;;2.58;1.30;;;;;;;;;;5108060;28;20027;-78
2021/03/15 11:18:46;;;;;;;4.53;1.23;;;;;;;;;;5102380;28;20020;-78
2021/03/15 11:21:13;;;;;;;1.88;0.90;;;;;;;;;;5105117;28;20089;-78
2021/03/15 11:23:40;;;;;;;2.85;1.00;;;;;;;;;;5093080;28;20021;-78
2021/03/15 11:26:07;;;;;;;1.83;0.60;;;;;;;;;;5107691;28;20426;-78
2021/03/15 11:28:34;;;;;;;1.98;0.90;;;;;;;;;;5097951;28;20409;-78
2021/03/15 11:31:00;;;;;;;3.67;1.90;;;;;;;;;;5104699;28;20019;-78
2021/03/15 11:33:27;;;;;;;3.53;1.00;;;;;;;;;;5091803;28;20035;-78
2021/03/15 11:35:53;;;;;;;1.70;0.82;;;;;;;;;;5092509;28;20440;-78
2021/03/15 11:38:23;;;;;;;2.85;1.20;;;;;;;;;;5097520;28;20012;-77
2021/03/15 11:40:49;;;;;;;3.38;1.20;;;;;;;;;;5093454;28;20040;-78
2021/03/15 11:43:15;;;;;;;2.90;1.27;;;;;;;;;;5096749;27;20081;-78
2021/03/15 11:45:41;;;;;;;5.60;1.60;;;;;;;;;;5107835;28;20028;-79
2021/03/15 11:48:08;;;;;;;5.30;1.38;;;;;;;;;;5110386;28;20480;-78
2021/03/15 11:50:34;;;;;;;1.90;0.80;;;;;;;;;;5097154;28;20027;-79
2021/03/15 11:53:00;;;;;;;2.22;0.90;;;;;;;;;;5115549;28;20065;-78
2021/03/15 11:55:26;;;;;;;3.15;1.05;;;;;;;;;;5101679;28;20040;-78
2021/03/15 11:57:52;;;;;;;2.17;0.95;;;;;;;;;;5092970;28;20020;-78
2021/03/15 12:00:19;;;;;;;1.88;0.75;;;;;;;;;;5094307;28;20123;-79
2021/03/15 12:02:45;;;;;;;1.95;0.75;;;;;;;;;;5098595;22;20040;-77
2021/03/15 12:05:11;;;;;;;2.40;1.05;;;;;;;;;;5062130;28;20029;-78
2021/03/15 12:07:38;;;;;;;2.78;0.95;;;;;;;;;;5068279;28;20484;-78
2021/03/15 12:10:05;;;;;;;2.47;1.20;;;;;;;;;;5068538;28;20032;-80
2021/03/15 12:12:30;;;;;;;3.30;1.05;;;;;;;;;;5082023;28;20454;-79
2021/03/15 12:14:56;;;;;;;11.63;5.57;;;;;;;;;;5088781;28;20028;-79
2021/03/15 12:17:22;;;;;;;4.97;1.20;;;;;;;;;;5089258;28;20111;-79
2021/03/15 12:19:48;;;;;;;3.17;1.45;;;;;;;;;;5082418;28;20508;-78
2021/03/15 12:22:13;;;;;;;6.95;2.60;;;;;;;;;;5084900;28;20468;-78
2021/03/15 12:24:39;;;;;;;13.63;4.40;;;;;;;;;;5086614;28;20027;-79
2021/03/15 12:27:05;;;;;;;2.85;1.30;;;;;;;;;;5085705;28;20034;-79
2021/03/15 12:29:32;;;;;;;3.47;1.10;;;;;;;;;;5086724;28;20035;-79
2021/03/15 12:31:58;;;;;;;4.57;1.08;;;;;;;;;;5085577;28;20016;-78
2021/03/15 12:34:24;;;;;;;8.93;3.45;;;;;;;;;;5086108;28;20038;-78
2021/03/15 12:36:49;;;;;;;6.72;2.25;;;;;;;;;;5064660;28;20383;-79
2021/03/15 12:39:15;;;;;;;9.98;3.72;;;;;;;;;;5068211;28;20020;-79
2021/03/15 12:41:41;;;;;;;8.43;2.85;;;;;;;;;;5087040;28;20028;-80
2021/03/15 12:44:07;;;;;;;4.88;1.13;;;;;;;;;;5083880;28;20410;-78
2021/03/15 12:46:32;;;;;;;6.38;2.47;;;;;;;;;;5086727;28;20365;-81
2021/03/15 12:48:58;;;;;;;8.98;3.50;;;;;;;;;;5095295;28;20464;-82
2021/03/15 12:51:24;;;;;;;3.58;1.65;;;;;;;;;;5089602;28;20032;-83
2021/03/15 12:53:50;;;;;;;5.60;1.35;;;;;;;;;;5091724;28;20077;-81
2021/03/15 12:56:16;;;;;;;5.20;1.60;;;;;;;;;;5092908;28;20073;-82
2021/03/15 12:58:41;;;;;;;4.28;1.20;;;;;;;;;;5094872;28;20039;-82
2021/03/15 13:01:07;;;;;;;5.50;2.08;;;;;;;;;;5096170;28;20487;-82
2021/03/15 13:03:33;;;;;;;2.75;1.05;;;;;;;;;;5089507;28;20020;-82
2021/03/15 13:05:58;;;;;;;3.63;1.70;;;;;;;;;;5093461;28;20068;-82
2021/03/15 13:08:24;;;;;;;3.38;1.05;;;;;;;;;;5074516;28;20106;-83
2021/03/15 13:10:50;;;;;;;2.72;1.10;;;;;;;;;;5096427;28;20024;-83
2021/03/15 13:13:16;;;;;;;3.92;1.50;;;;;;;;;;5094457;28;20012;-82
2021/03/15 13:15:42;;;;;;;2.97;1.23;;;;;;;;;;5076176;28;20063;-83
2021/03/15 13:18:09;;;;;;;2.28;0.80;;;;;;;;;;5089961;28;20084;-82
2021/03/15 13:20:35;;;;;;;4.93;1.50;;;;;;;;;;5093033;28;20422;-82
2021/03/15 13:23:01;;;;;;;3.45;1.85;;;;;;;;;;5093577;28;20575;-82
2021/03/15 13:25:27;;;;;;;5.57;1.73;;;;;;;;;;5090001;28;20030;-81
2021/03/15 13:27:53;;;;;;;4.10;1.40;;;;;;;;;;5093893;28;20415;-83
2021/03/15 13:30:20;;;;;;;2.50;1.13;;;;;;;;;;5088887;28;20020;-82
2021/03/15 13:32:46;;;;;;;4.15;1.55;;;;;;;;;;5091732;28;20109;-82
2021/03/15 13:35:12;;;;;;;2.55;1.30;;;;;;;;;;5093723;28;20077;-82
2021/03/15 13:37:40;;;;;;;2.20;1.05;;;;;;;;;;5082439;28;20012;-81
2021/03/15 13:40:07;;;;;;;3.45;1.30;;;;;;;;;;5091838;28;20024;-80
2021/03/15 13:42:32;;;;;;;2.45;1.42;;;;;;;;;;5093009;28;20020;-81
2021/03/15 13:44:58;;;;;;;2.88;1.25;;;;;;;;;;5092940;28;20046;-81
2021/03/15 13:47:24;;;;;;;5.75;2.40;;;;;;;;;;5091764;28;20030;-83
2021/03/15 13:49:49;;;;;;;6.90;2.40;;;;;;;;;;5083837;28;20043;-81
2021/03/15 13:52:15;;;;;;;5.63;1.67;;;;;;;;;;5088585;28;20547;-81
2021/03/15 13:54:41;;;;;;;4.63;1.67;;;;;;;;;;5084707;28;20387;-80
2021/03/15 13:57:06;;;;;;;3.70;1.73;;;;;;;;;;5083068;28;20589;-80
2021/03/15 13:59:32;;;;;;;4.10;1.45;;;;;;;;;;5069107;28;20059;-80
2021/03/15 14:01:58;;;;;;;3.53;1.00;;;;;;;;;;5081115;28;20112;-80
2021/03/15 14:04:23;;;;;;;3.25;1.20;;;;;;;;;;5090606;28;20427;-80
2021/03/15 14:06:49;;;;;;;3.67;1.02;;;;;;;;;;5082488;28;20035;-81
2021/03/15 14:09:15;;;;;;;3.20;0.90;;;;;;;;;;5086734;28;20107;-80
2021/03/15 14:11:40;;;;;;;2.38;1.00;;;;;;;;;;5083135;28;20036;-81
2021/03/15 14:14:06;;;;;;;3.40;1.30;;;;;;;;;;5083402;28;20034;-80
2021/03/15 14:16:32;;;;;;;2.55;1.33;;;;;;;;;;5091842;28;20032;-81
2021/03/15 14:18:57;;;;;;;2.47;0.73;;;;;;;;;;5083323;28;20028;-81
2021/03/15 14:21:23;;;;;;;2.70;1.20;;;;;;;;;;5092055;28;20036;-81
2021/03/15 14:23:49;;;;;;;2.40;0.90;;;;;;;;;;5091691;28;20030;-80
2021/03/15 14:26:15;;;;;;;3.85;1.75;;;;;;;;;;5092912;28;20031;-80
2021/03/15 14:28:41;;;;;;;2.88;1.52;;;;;;;;;;5087599;28;20052;-80
2021/03/15 14:31:07;;;;;;;3.33;1.38;;;;;;;;;;5092943;28;20075;-80
2021/03/15 14:33:33;;;;;;;2.38;0.98;;;;;;;;;;5086746;28;20087;-79
2021/03/15 14:35:59;;;;;;;2.72;1.45;;;;;;;;;;5092768;28;20056;-81
2021/03/15 14:38:25;;;;;;;4.28;1.80;;;;;;;;;;5069568;28;20054;-83
2021/03/15 14:40:51;;;;;;;3.05;1.42;;;;;;;;;;5093115;28;20024;-82
2021/03/15 14:43:16;;;;;;;4.72;1.75;;;;;;;;;;5072672;28;20171;-83
2021/03/15 14:45:43;;;;;;;3.45;1.10;;;;;;;;;;5079127;28;20063;-82
2021/03/15 14:48:09;;;;;;;4.50;1.10;;;;;;;;;;5103737;28;20074;-81
2021/03/15 14:50:35;;;;;;;4.40;1.55;;;;;;;;;;5100913;28;20016;-81
2021/03/15 14:53:01;;;;;;;2.42;1.15;;;;;;;;;;5111165;28;20020;-80
2021/03/15 14:55:27;;;;;;;4.45;1.50;;;;;;;;;;5096118;28;20027;-82
2021/03/15 14:57:52;;;;;;;3.35;1.73;;;;;;;;;;5098305;28;20028;-81
2021/03/15 15:00:18;;;;;;;5.88;3.03;;;;;;;;;;5081920;28;20011;-82
2021/03/15 15:05:03;;;;;;;4.10;1.17;;;;;;;;;;5113684;27;20401;-80
2021/03/15 15:07:28;;;;;;;3.67;1.13;;;;;;;;;;5098811;28;20054;-81
2021/03/15 15:09:54;;;;;;;1.98;0.88;;;;;;;;;;5084974;28;20103;-80
2021/03/15 15:12:20;;;;;;;3.63;1.27;;;;;;;;;;5091536;28;20095;-81
2021/03/15 15:14:45;;;;;;;2.70;1.30;;;;;;;;;;5091928;28;20047;-81
2021/03/15 15:17:12;;;;;;;5.32;1.35;;;;;;;;;;5091814;28;20457;-85
2021/03/15 15:19:37;;;;;;;6.30;1.50;;;;;;;;;;5097730;28;20115;-79
2021/03/15 15:22:04;;;;;;;2.83;1.50;;;;;;;;;;5092056;28;20112;-79
2021/03/15 15:24:30;;;;;;;3.47;1.30;;;;;;;;;;5089129;28;20403;-80
2021/03/15 15:26:56;;;;;;;3.35;1.20;;;;;;;;;;5099700;28;20028;-81
2021/03/15 15:29:21;;;;;;;2.83;1.52;;;;;;;;;;5101387;28;20442;-80
2021/03/15 15:31:47;;;;;;;2.88;1.35;;;;;;;;;;5094973;28;20092;-81
2021/03/15 15:34:13;;;;;;;3.17;1.40;;;;;;;;;;5095321;28;20036;-82
2021/03/15 15:36:38;;;;;;;2.78;1.50;;;;;;;;;;5090303;28;20074;-81
2021/03/15 15:39:04;;;;;;;2.88;1.30;;;;;;;;;;5089551;28;20027;-82
2021/03/15 15:41:30;;;;;;;4.07;1.73;;;;;;;;;;5093692;28;20028;-81
2021/03/15 15:43:55;;;;;;;3.95;2.00;;;;;;;;;;5095345;28;20033;-81
2021/03/15 15:46:21;;;;;;;3.58;1.83;;;;;;;;;;5088170;28;20024;-81
2021/03/15 15:48:47;;;;;;;3.65;1.23;;;;;;;;;;5089099;28;20023;-81
2021/03/15 15:51:13;;;;;;;3.95;1.50;;;;;;;;;;5093176;28;20067;-81
2021/03/15 15:53:39;;;;;;;2.97;1.30;;;;;;;;;;5090708;28;20028;-82
2021/03/15 15:56:05;;;;;;;3.83;1.83;;;;;;;;;;5090324;28;20020;-82
2021/03/15 15:58:33;;;;;;;4.47;1.90;;;;;;;;;;5093820;28;20024;-81
2021/03/15 16:00:59;;;;;;;3.38;1.70;;;;;;;;;;5089699;28;20035;-81
2021/03/15 16:03:24;;;;;;;7.78;1.80;;;;;;;;;;5080834;28;20400;-79
2021/03/15 16:08:09;;;;;;;5.50;1.20;;;;;;;;;;5086624;27;20441;-78
2021/03/15 16:10:34;;;;;;;3.08;1.25;;;;;;;;;;5079502;28;20656;-79
2021/03/15 16:13:00;;;;;;;3.65;1.05;;;;;;;;;;5079235;28;20032;-78
2021/03/15 16:15:25;;;;;;;4.20;1.35;;;;;;;;;;5081733;28;20107;-78
2021/03/15 16:17:51;;;;;;;3.47;0.85;;;;;;;;;;5075025;28;20035;-81
2021/03/15 16:20:17;;;;;;;2.30;0.95;;;;;;;;;;5080173;28;20500;-79
2021/03/15 16:22:42;;;;;;;3.85;1.10;;;;;;;;;;5083902;28;20029;-79
2021/03/15 16:25:09;;;;;;;7.43;1.67;;;;;;;;;;5082499;28;20020;-80
2021/03/15 16:27:35;;;;;;;2.30;1.08;;;;;;;;;;5080708;28;20025;-81
2021/03/15 16:30:01;;;;;;;2.78;1.05;;;;;;;;;;5079388;28;20479;-81
2021/03/15 16:32:27;;;;;;;3.45;1.13;;;;;;;;;;5082802;28;20073;-83
2021/03/15 16:34:53;;;;;;;4.25;1.23;;;;;;;;;;5074597;28;20028;-81
2021/03/15 16:37:18;;;;;;;3.75;1.70;;;;;;;;;;5073535;28;20392;-82
2021/03/15 16:39:46;;;;;;;5.20;1.85;;;;;;;;;;5079365;28;20035;-78
2021/03/15 16:42:16;;;;;;;4.45;2.25;;;;;;;;;;5078046;28;20016;-81
2021/03/15 16:44:42;;;;;;;7.05;3.00;;;;;;;;;;5081566;28;20927;-82
2021/03/15 16:47:11;;;;;;;7.80;3.20;;;;;;;;;;5082975;28;20032;-82
2021/03/15 16:49:36;;;;;;;9.05;3.30;;;;;;;;;;5083561;28;20028;-81
2021/03/15 16:52:02;;;;;;;5.13;2.33;;;;;;;;;;5083989;28;20038;-83
2021/03/15 16:54:28;;;;;;;22.10;11.25;;;;;;;;;;5084547;28;20016;-82
2021/03/15 16:56:54;;;;;;;10.48;5.97;;;;;;;;;;5085077;28;20020;-80
2021/03/15 16:59:19;;;;;;;11.65;7.60;;;;;;;;;;5084566;28;20024;-80
2021/03/15 17:01:45;;;;;;;6.10;2.03;;;;;;;;;;5085097;28;20103;-81
2021/03/15 17:04:11;;;;;;;7.22;3.42;;;;;;;;;;5079055;28;20048;-80
2021/03/15 17:06:37;;;;;;;6.85;3.20;;;;;;;;;;5078097;28;20051;-81
2021/03/15 17:11:21;;;;;;;5.25;2.17;;;;;;;;;;5098699;27;20387;-80
2021/03/15 17:13:47;;;;;;;8.00;3.33;;;;;;;;;;5101520;28;20384;-80
2021/03/15 17:16:13;;;;;;;8.70;3.97;;;;;;;;;;5083140;28;20028;-81
2021/03/15 17:18:38;;;;;;;7.32;3.00;;;;;;;;;;5088277;28;20021;-80
2021/03/15 17:21:04;;;;;;;8.65;4.03;;;;;;;;;;5081876;28;20060;-80
2021/03/15 17:23:30;;;;;;;7.03;2.60;;;;;;;;;;5078692;28;20081;-80
2021/03/15 17:25:56;;;;;;;6.82;3.25;;;;;;;;;;5085581;28;20024;-80
2021/03/15 17:28:21;;;;;;;11.75;5.88;;;;;;;;;;5087944;28;20040;-80
2021/03/15 17:30:47;;;;;;;10.13;5.30;;;;;;;;;;5087739;28;20093;-80
2021/03/15 17:35:31;;;;;;;8.65;3.58;;;;;;;;;;5064949;28;20923;-81
2021/03/15 17:37:57;;;;;;;5.75;2.95;;;;;;;;;;5061627;28;20038;-81
2021/03/15 17:40:23;;;;;;;8.40;4.05;;;;;;;;;;5044594;28;20851;-82
2021/03/15 17:42:48;;;;;;;8.40;3.97;;;;;;;;;;5039475;28;20021;-79
2021/03/15 17:45:15;;;;;;;6.53;3.33;;;;;;;;;;5036133;28;20071;-79
2021/03/15 17:47:41;;;;;;;7.45;3.70;;;;;;;;;;5037985;28;20051;-79
2021/03/15 17:50:08;;;;;;;8.05;4.15;;;;;;;;;;5039615;28;20013;-79
2021/03/15 17:52:33;;;;;;;18.05;13.05;;;;;;;;;;5034465;28;20049;-78
2021/03/15 17:54:59;;;;;;;35.08;21.08;;;;;;;;;;5037384;28;20064;-79
2021/03/15 17:57:25;;;;;;;32.38;16.88;;;;;;;;;;5036204;28;20045;-79
2021/03/15 17:59:52;;;;;;;24.83;14.57;;;;;;;;;;5036896;28;20013;-78
2021/03/15 18:02:18;;;;;;;56.83;29.60;;;;;;;;;;5044606;28;20033;-79
2021/03/15 18:07:11;;;;;;;18.58;9.50;;;;;;;;;;5023086;28;20049;-79
2021/03/15 18:09:37;;;;;;;39.83;21.40;;;;;;;;;;5028169;28;20029;-79
2021/03/15 18:12:03;;;;;;;114.32;54.30;;;;;;;;;;5029772;28;20033;-78
2021/03/15 18:14:29;;;;;;;95.25;43.35;;;;;;;;;;5029770;28;20049;-78
2021/03/15 18:16:54;;;;;;;145.10;63.78;;;;;;;;;;5029230;28;20532;-80
2021/03/15 18:19:20;;;;;;;310.27;139.45;;;;;;;;;;5031074;28;20386;-77
2021/03/15 18:21:46;;;;;;;45.17;20.00;;;;;;;;;;5028293;28;20393;-78
2021/03/15 18:24:12;;;;;;;19.52;10.55;;;;;;;;;;5024352;28;19996;-79
2021/03/15 18:26:38;;;;;;;42.45;21.17;;;;;;;;;;5023828;28;20034;-78
2021/03/15 18:29:07;;;;;;;16.70;9.95;;;;;;;;;;5018991;28;20033;-79
2021/03/15 18:31:36;;;;;;;11.93;5.65;;;;;;;;;;5025052;28;20033;-77
2021/03/15 18:34:03;;;;;;;10.45;5.03;;;;;;;;;;5024914;28;20785;-78
2021/03/15 18:36:29;;;;;;;9.65;4.50;;;;;;;;;;5025388;28;20026;-79
2021/03/15 18:38:55;;;;;;;12.05;5.95;;;;;;;;;;5026159;28;20049;-76
2021/03/15 18:41:21;;;;;;;7.60;4.10;;;;;;;;;;5025642;28;20478;-78
2021/03/15 18:43:46;;;;;;;5.90;3.53;;;;;;;;;;5026534;28;20060;-78
2021/03/15 18:46:12;;;;;;;4.25;2.20;;;;;;;;;;5011916;28;20701;-77
2021/03/15 18:48:38;;;;;;;2.85;1.80;;;;;;;;;;5010719;28;20036;-76
2021/03/15 18:51:05;;;;;;;4.00;1.70;;;;;;;;;;5011412;28;20644;-76
2021/03/15 18:53:31;;;;;;;2.80;1.35;;;;;;;;;;5011962;28;20036;-78
2021/03/15 18:55:56;;;;;;;3.17;1.60;;;;;;;;;;5019005;28;20030;-78
2021/03/15 18:58:22;;;;;;;4.53;3.05;;;;;;;;;;5019970;28;20116;-77
2021/03/15 19:00:48;;;;;;;4.18;2.92;;;;;;;;;;5012002;28;20028;-77
2021/03/15 19:03:13;;;;;;;4.05;2.60;;;;;;;;;;5011890;28;20022;-76
2021/03/15 19:05:39;;;;;;;4.38;2.70;;;;;;;;;;5009103;28;20034;-77
2021/03/15 19:08:05;;;;;;;5.07;3.13;;;;;;;;;;5008121;28;20033;-77
2021/03/15 19:10:30;;;;;;;3.30;2.00;;;;;;;;;;5011516;28;20079;-77
2021/03/15 19:12:56;;;;;;;6.78;2.00;;;;;;;;;;5010886;28;20040;-77
2021/03/15 19:15:22;;;;;;;3.72;2.08;;;;;;;;;;5010782;28;20568;-78
2021/03/15 19:17:48;;;;;;;5.57;2.20;;;;;;;;;;5011342;28;20033;-77
2021/03/15 19:20:14;;;;;;;6.55;3.85;;;;;;;;;;5012402;28;20029;-78
2021/03/15 19:22:40;;;;;;;4.32;3.13;;;;;;;;;;5012088;28;20030;-78
2021/03/15 19:25:06;;;;;;;6.38;3.15;;;;;;;;;;5010892;28;20032;-77
2021/03/15 19:27:32;;;;;;;3.78;2.22;;;;;;;;;;5012670;28;20060;-77
2021/03/15 19:29:57;;;;;;;5.65;2.30;;;;;;;;;;5012692;28;20733;-75
2021/03/15 19:32:23;;;;;;;5.18;3.47;;;;;;;;;;5011725;28;20080;-76
2021/03/15 19:34:49;;;;;;;4.30;2.70;;;;;;;;;;5011045;28;20034;-78
2021/03/15 19:37:14;;;;;;;3.47;1.73;;;;;;;;;;5015279;28;20540;-76
2021/03/15 19:39:40;;;;;;;3.20;1.42;;;;;;;;;;5011203;28;20448;-78
2021/03/15 19:42:06;;;;;;;3.42;2.00;;;;;;;;;;5009405;28;20026;-77
2021/03/15 19:44:32;;;;;;;5.43;1.92;;;;;;;;;;5009913;28;20052;-76
2021/03/15 19:46:58;;;;;;;4.30;1.60;;;;;;;;;;5011375;28;20030;-76
2021/03/15 19:49:24;;;;;;;4.40;2.25;;;;;;;;;;5011870;28;20545;-77
2021/03/15 19:51:50;;;;;;;3.15;1.63;;;;;;;;;;5011252;28;20033;-78
2021/03/15 19:54:16;;;;;;;4.38;2.40;;;;;;;;;;5011163;28;20068;-77
2021/03/15 19:56:42;;;;;;;3.60;2.03;;;;;;;;;;5009067;28;20036;-78
2021/03/15 19:59:07;;;;;;;3.40;1.83;;;;;;;;;;5011131;28;20026;-78
2021/03/15 20:01:34;;;;;;;3.28;1.58;;;;;;;;;;5003164;28;20107;-79
2021/03/15 20:04:00;;;;;;;4.32;1.80;;;;;;;;;;5008753;28;20042;-78
2021/03/15 20:06:25;;;;;;;3.85;2.00;;;;;;;;;;5011075;28;20030;-77
2021/03/15 20:11:11;;;;;;;3.28;1.42;;;;;;;;;;5063195;28;20353;-79
2021/03/15 20:13:41;;;;;;;4.90;1.20;;;;;;;;;;5063545;28;20040;-78
2021/03/15 20:16:07;;;;;;;3.25;1.23;;;;;;;;;;5049391;28;20029;-77
2021/03/15 20:18:32;;;;;;;2.70;0.98;;;;;;;;;;5047875;28;20500;-76
2021/03/15 20:20:59;;;;;;;4.07;1.88;;;;;;;;;;5051035;28;20061;-78
2021/03/15 20:23:24;;;;;;;7.57;2.58;;;;;;;;;;5051447;28;20083;-79
2021/03/15 20:25:50;;;;;;;5.60;2.53;;;;;;;;;;5055571;28;20395;-78
2021/03/15 20:28:17;;;;;;;3.67;1.40;;;;;;;;;;5052031;28;20032;-79
2021/03/15 20:30:44;;;;;;;4.63;2.05;;;;;;;;;;5056364;28;20044;-76
2021/03/15 20:33:10;;;;;;;11.80;4.60;;;;;;;;;;5058403;28;20052;-78
2021/03/15 20:35:38;;;;;;;10.27;3.67;;;;;;;;;;5048438;28;20029;-78
2021/03/15 20:38:05;;;;;;;6.88;2.67;;;;;;;;;;5046509;28;20033;-77
2021/03/15 20:40:30;;;;;;;5.03;1.95;;;;;;;;;;5052518;28;20021;-77
2021/03/15 20:42:56;;;;;;;5.35;1.80;;;;;;;;;;5052051;28;20036;-78
2021/03/15 20:45:22;;;;;;;3.58;1.30;;;;;;;;;;5051361;28;20029;-77
2021/03/15 20:47:48;;;;;;;2.20;0.82;;;;;;;;;;5045841;28;20032;-76
2021/03/15 20:50:13;;;;;;;3.55;1.38;;;;;;;;;;5049017;28;20091;-77
2021/03/15 20:52:39;;;;;;;3.20;1.75;;;;;;;;;;5047291;28;20029;-78
2021/03/15 20:55:07;;;;;;;2.67;1.23;;;;;;;;;;5051239;28;20024;-77
2021/03/15 20:57:33;;;;;;;3.55;1.45;;;;;;;;;;5048791;28;20052;-76
2021/03/15 20:59:58;;;;;;;3.58;1.50;;;;;;;;;;5049118;28;20032;-78
2021/03/15 21:02:24;;;;;;;3.60;1.48;;;;;;;;;;5046691;28;20041;-77
2021/03/15 21:04:50;;;;;;;2.88;1.63;;;;;;;;;;5048483;28;20120;-78
2021/03/15 21:07:15;;;;;;;2.25;1.08;;;;;;;;;;5049229;28;20028;-79
2021/03/15 21:11:59;;;;;;;6.60;1.73;;;;;;;;;;5121687;27;20374;-79
2021/03/15 21:14:25;;;;;;;2.63;1.67;;;;;;;;;;5099129;28;20032;-78
2021/03/15 21:16:51;;;;;;;3.53;1.35;;;;;;;;;;5086815;28;20032;-79
2021/03/15 21:19:17;;;;;;;3.10;1.27;;;;;;;;;;5082794;28;20032;-78
2021/03/15 21:21:42;;;;;;;3.63;1.35;;;;;;;;;;5087817;28;20065;-78
2021/03/15 21:24:08;;;;;;;2.88;1.30;;;;;;;;;;5090070;28;20138;-77
2021/03/15 21:26:34;;;;;;;4.28;1.90;;;;;;;;;;5083784;28;20024;-78
2021/03/15 21:29:00;;;;;;;4.35;1.38;;;;;;;;;;5081934;28;20498;-79
2021/03/15 21:31:25;;;;;;;3.70;1.30;;;;;;;;;;5089757;28;19920;-78
2021/03/15 21:33:51;;;;;;;3.20;1.52;;;;;;;;;;5089999;28;20069;-77
2021/03/15 21:39:11;;;;;;;3.92;1.40;;;;;;;;;;5089167;28;20086;-78